Time;durP1;ratioP1;P1;durP2;ratioP2;P2;SDS_P1;SDS_P2;PMS_P1;PMS_P2;Temp;Humidity;BMP_temperature;BMP_pressure;BME280_temperature;BME280_humidity;BME280_pressure;Samples;Min_cycle;Max_cycle;Signal;HPM_P1;HPM_P2
2022/01/24 00:01:04;;;;;;;28.00;11.40;;;;;;;-5.21;82.59;100939.34;1656729;86;21062;-68
2022/01/24 00:03:33;;;;;;;27.32;12.18;;;;;;;-5.26;82.76;100936.36;1600061;89;21534;-67
2022/01/24 00:06:04;;;;;;;22.52;10.95;;;;;;;-5.26;83.04;100937.20;1612081;89;21112;-67
2022/01/24 00:08:31;;;;;;;24.45;11.25;;;;;;;-5.25;83.03;100937.52;1624159;87;21756;-67
2022/01/24 00:11:06;;;;;;;27.67;12.80;;;;;;;-5.26;83.11;100944.42;1654812;85;21166;-67
2022/01/24 00:16:47;;;;;;;26.77;11.35;;;;;;;-5.34;83.47;100945.84;1659333;85;21016;-66
2022/01/24 00:26:57;;;;;;;22.42;10.72;;;;;;;-5.55;84.57;100968.30;1658818;85;21011;-68
2022/01/24 00:29:25;;;;;;;26.00;12.07;;;;;;;-5.58;84.78;100973.19;1659257;85;21075;-67
2022/01/24 00:31:54;;;;;;;28.92;13.50;;;;;;;-5.62;84.94;100978.92;1582780;89;21075;-67
2022/01/24 00:34:23;;;;;;;24.65;11.55;;;;;;;-5.70;85.15;100977.62;1612299;89;21113;-68
2022/01/24 00:36:52;;;;;;;25.50;12.55;;;;;;;-5.77;85.46;100982.02;1624384;87;21143;-66
2022/01/24 00:39:21;;;;;;;23.38;10.85;;;;;;;-5.85;85.62;100973.48;1623665;87;21085;-66
2022/01/24 00:44:43;;;;;;;20.82;11.30;;;;;;;-5.90;86.06;100979.38;1655923;86;21543;-67
2022/01/24 00:47:03;;;;;;;27.52;12.80;;;;;;;-5.97;86.21;100986.45;1656784;86;21572;-68
2022/01/24 00:49:53;;;;;;;30.15;13.65;;;;;;;-6.05;86.31;100975.29;1652573;86;22104;-68
2022/01/24 00:55:01;;;;;;;27.45;14.23;;;;;;;-6.11;86.82;100978.67;1654433;86;21043;-67
2022/01/24 00:57:31;;;;;;;25.43;12.65;;;;;;;-6.13;86.87;100978.85;1657554;86;21023;-67
2022/01/24 00:59:57;;;;;;;29.20;14.03;;;;;;;-6.08;87.06;100970.77;1654874;86;21011;-67
2022/01/24 01:02:24;;;;;;;24.40;11.88;;;;;;;-6.06;86.88;100972.78;1656580;86;21179;-67
2022/01/24 01:07:36;;;;;;;25.68;13.10;;;;;;;-6.23;86.37;100974.19;1654418;86;21566;-67
2022/01/24 01:18:17;;;;;;;27.30;13.70;;;;;;;-6.53;87.16;100992.19;1656597;86;21055;-68
2022/01/24 01:23:29;;;;;;;24.07;13.38;;;;;;;-6.55;87.57;100992.04;1654810;86;21083;-68
2022/01/24 01:25:58;;;;;;;26.40;12.45;;;;;;;-6.48;87.74;100990.33;1649661;86;21114;-67
2022/01/24 01:28:26;;;;;;;28.92;13.70;;;;;;;-6.39;87.98;100987.98;1649076;86;21849;-68
2022/01/24 01:30:54;;;;;;;28.90;14.90;;;;;;;-6.38;87.15;100990.16;1653589;86;21501;-67
2022/01/24 01:33:38;;;;;;;28.07;13.32;;;;;;;-6.45;87.08;100991.36;1653253;86;21070;-68
2022/01/24 01:36:07;;;;;;;25.02;13.80;;;;;;;-6.44;87.17;101000.22;1655271;86;21028;-67
2022/01/24 01:57:17;;;;;;;27.40;14.73;;;;;;;-6.78;87.15;101010.16;1656632;86;21480;-66
2022/01/24 01:59:46;;;;;;;22.55;12.73;;;;;;;-6.83;86.92;101010.66;1656465;86;21145;-66
2022/01/24 02:02:13;;;;;;;27.82;12.88;;;;;;;-6.95;86.85;101019.55;1653768;86;21070;-66
2022/01/24 02:04:41;;;;;;;21.65;11.25;;;;;;;-7.09;86.81;101025.05;1655142;85;21076;-68
2022/01/24 02:07:14;;;;;;;20.37;11.53;;;;;;;-7.21;86.91;101022.70;1651835;86;21958;-66
2022/01/24 02:09:46;;;;;;;19.90;9.88;;;;;;;-7.22;86.89;101024.20;1650853;86;21003;-66
2022/01/24 02:12:12;;;;;;;25.97;12.88;;;;;;;-7.29;86.56;101021.35;1651586;86;21107;-66
2022/01/24 02:14:50;;;;;;;20.95;11.70;;;;;;;-7.43;86.38;101026.84;1650194;86;21067;-66
2022/01/24 02:17:17;;;;;;;23.70;13.03;;;;;;;-7.59;86.67;101023.63;1649074;86;21074;-66
2022/01/24 02:22:46;;;;;;;29.07;12.35;;;;;;;-7.87;87.64;101014.48;1651878;86;21527;-67
2022/01/24 02:25:16;;;;;;;22.07;12.13;;;;;;;-7.91;88.27;101015.30;1652390;86;21060;-67
2022/01/24 02:27:53;;;;;;;28.05;14.30;;;;;;;-7.94;88.46;101015.13;1647404;86;21060;-67
2022/01/24 02:30:23;;;;;;;21.17;11.53;;;;;;;-8.02;89.15;101020.94;1575695;89;21502;-68
2022/01/24 02:32:42;;;;;;;27.52;12.63;;;;;;;-8.00;89.82;101023.78;1618220;88;21552;-67
2022/01/24 02:37:53;;;;;;;22.98;11.80;;;;;;;-7.79;90.33;101023.03;1777446;79;22784;-65
2022/01/24 02:40:21;;;;;;;25.02;12.80;;;;;;;-7.73;90.69;101032.59;1748261;81;20894;-68
2022/01/24 02:48:24;;;;;;;22.75;11.97;;;;;;;-7.73;89.25;101027.76;1744943;82;20972;-67
2022/01/24 02:53:27;;;;;;;26.57;13.72;;;;;;;-7.97;89.21;101025.31;1748341;82;20926;-66
2022/01/24 02:55:54;;;;;;;23.55;12.00;;;;;;;-8.04;89.31;101026.45;1742662;82;22000;-67
2022/01/24 02:58:21;;;;;;;23.95;11.68;;;;;;;-8.07;89.41;101029.45;1747823;82;20893;-67
2022/01/24 03:00:50;;;;;;;26.48;13.28;;;;;;;-8.07;89.72;101026.26;1741714;82;20875;-66
2022/01/24 03:03:16;;;;;;;21.95;10.43;;;;;;;-7.97;90.08;101027.50;1734921;82;21119;-67
2022/01/24 03:05:42;;;;;;;33.10;15.10;;;;;;;-7.88;89.83;101024.34;1736792;82;20999;-68
2022/01/24 03:08:13;;;;;;;24.47;13.08;;;;;;;-7.98;88.87;101031.16;1734331;82;21814;-67
2022/01/24 03:10:43;;;;;;;29.20;14.45;;;;;;;-8.06;89.00;101034.65;1733606;82;21011;-68
2022/01/24 03:15:55;;;;;;;;;;;;;;;-8.18;88.81;101034.57;1708926;83;21116;-67
2022/01/24 03:18:25;;;;;;;24.77;12.78;;;;;;;-8.23;88.96;101034.20;1706931;83;20205;-68
2022/01/24 03:20:53;;;;;;;29.00;12.93;;;;;;;-8.23;89.60;101039.55;1707816;83;21041;-68
2022/01/24 03:23:25;;;;;;;22.85;12.13;;;;;;;-8.11;90.17;101044.14;1705718;83;21066;-68
2022/01/24 03:25:52;;;;;;;19.67;10.78;;;;;;;-7.96;90.55;101052.41;1685802;84;21012;-68
2022/01/24 03:28:20;;;;;;;20.60;10.93;;;;;;;-7.80;90.58;101046.80;1683891;84;21028;-68
2022/01/24 03:30:48;;;;;;;20.05;10.28;;;;;;;-7.83;89.45;101048.79;1683922;84;21509;-67
2022/01/24 03:33:17;;;;;;;21.55;11.30;;;;;;;-7.85;89.68;101053.48;1682871;84;21063;-68
2022/01/24 03:35:44;;;;;;;19.32;10.25;;;;;;;-7.84;89.54;101055.64;1683915;84;21040;-67
2022/01/24 03:38:12;;;;;;;20.92;11.30;;;;;;;-7.86;89.21;101053.63;1685770;84;21138;-69
2022/01/24 03:40:39;;;;;;;21.52;11.30;;;;;;;-7.93;89.10;101050.75;1677390;84;21063;-67
2022/01/24 03:43:05;;;;;;;26.60;13.50;;;;;;;-8.01;88.68;101052.89;1684777;84;21033;-68
2022/01/24 03:46:09;;;;;;;21.55;12.30;;;;;;;-8.06;88.81;101051.20;1736291;81;21757;-67
2022/01/24 03:51:00;;;;;;;21.87;11.30;;;;;;;-7.92;89.61;101060.96;1742977;81;21077;-68
2022/01/24 03:53:28;;;;;;;18.32;9.85;;;;;;;-8.01;88.68;101058.73;1741756;81;21135;-68
2022/01/24 03:55:54;;;;;;;17.70;9.30;;;;;;;-7.99;89.16;101058.94;1740077;81;21085;-68
2022/01/24 03:58:24;;;;;;;21.82;11.22;;;;;;;-8.06;88.63;101068.09;1742046;81;21360;-68
2022/01/24 04:00:51;;;;;;;22.30;11.22;;;;;;;-8.17;89.02;101069.68;1738967;81;20978;-68
2022/01/24 04:03:20;;;;;;;23.92;12.00;;;;;;;-8.20;89.61;101073.52;1744089;81;21537;-66
2022/01/24 04:05:46;;;;;;;26.68;12.55;;;;;;;-8.12;90.18;101064.70;1741070;81;21002;-67
2022/01/24 04:08:13;;;;;;;27.70;12.50;;;;;;;-8.02;90.48;101071.79;1742836;81;21001;-67
2022/01/24 04:10:43;;;;;;;27.00;13.05;;;;;;;-7.99;90.41;101068.30;1739403;81;21219;-67
2022/01/24 04:18:41;;;;;;;25.70;12.18;;;;;;;-7.96;90.11;101061.78;1739885;81;21491;-67
2022/01/24 04:21:22;;;;;;;23.10;10.78;;;;;;;-7.98;90.08;101059.75;1743826;81;21104;-67
2022/01/24 04:23:51;;;;;;;27.73;13.30;;;;;;;-8.03;89.83;101056.74;1743044;81;21060;-66
2022/01/24 04:26:15;;;;;;;24.77;12.20;;;;;;;-8.11;89.72;101056.18;1673407;84;21072;-67
2022/01/24 04:28:42;;;;;;;21.95;11.03;;;;;;;-8.14;89.94;101053.34;1676225;85;21090;-66
2022/01/24 04:31:09;;;;;;;25.20;12.37;;;;;;;-8.23;89.89;101060.95;1684386;84;21043;-67
2022/01/24 04:33:36;;;;;;;25.55;12.53;;;;;;;-8.27;90.11;101055.60;1739596;81;21029;-67
2022/01/24 04:36:03;;;;;;;22.13;11.00;;;;;;;-8.29;90.23;101055.76;1742319;81;21671;-66
2022/01/24 04:38:34;;;;;;;35.45;15.18;;;;;;;-8.35;90.23;101053.69;1742068;81;20982;-67
2022/01/24 04:41:05;;;;;;;25.95;13.65;;;;;;;-8.51;90.24;101045.89;1739584;81;20974;-67
2022/01/24 04:43:54;;;;;;;24.82;12.33;;;;;;;-8.56;90.89;101045.06;1741000;81;21244;-67
2022/01/24 04:46:48;;;;;;;34.75;14.30;;;;;;;-8.50;91.67;101043.58;1742766;81;21061;-66
2022/01/24 04:54:37;;;;;;;29.80;14.50;;;;;;;-8.59;92.58;101058.75;1742270;81;20994;-65
2022/01/24 04:56:43;;;;;;;26.97;13.78;;;;;;;-8.55;92.87;101064.08;1747410;81;21026;-67
2022/01/24 04:59:11;;;;;;;31.93;14.45;;;;;;;-8.55;93.11;101073.44;1740728;81;20991;-67
2022/01/24 05:01:38;;;;;;;26.37;12.23;;;;;;;-8.57;93.53;101088.85;1742901;81;21126;-67
2022/01/24 05:04:05;;;;;;;24.10;12.53;;;;;;;-8.54;93.79;101083.64;1740566;81;21026;-67
2022/01/24 05:06:34;;;;;;;35.08;13.95;;;;;;;-8.49;94.11;101083.17;1739948;81;21020;-66
2022/01/24 05:09:04;;;;;;;35.70;15.30;;;;;;;-8.53;93.93;101088.50;1742683;81;21458;-69
2022/01/24 05:11:54;;;;;;;32.55;14.73;;;;;;;-8.56;94.43;101078.97;1674591;84;21013;-69
2022/01/24 05:25:19;;;;;;;31.02;13.95;;;;;;;-8.37;94.61;101090.45;1685295;84;21063;-67
2022/01/24 05:27:48;;;;;;;29.85;15.00;;;;;;;-8.44;94.80;101088.41;1683259;84;21558;-68
2022/01/24 05:30:24;;;;;;;24.92;13.65;;;;;;;-8.46;96.58;101089.05;1739883;81;21065;-68
2022/01/24 05:32:55;;;;;;;28.17;15.65;;;;;;;-8.44;97.19;101094.24;1743149;81;20987;-68
2022/01/24 05:35:21;;;;;;;30.40;16.25;;;;;;;-8.47;97.70;101097.23;1742864;81;20980;-68
2022/01/24 05:37:48;;;;;;;25.10;13.53;;;;;;;-8.48;98.26;101100.42;1738041;81;21577;-67
2022/01/24 05:40:16;;;;;;;28.27;14.63;;;;;;;-8.41;98.88;101100.64;1736001;82;21513;-67
2022/01/24 05:42:47;;;;;;;25.30;13.15;;;;;;;-8.40;98.90;101105.47;1646149;85;21056;-67
2022/01/24 05:45:15;;;;;;;27.58;15.00;;;;;;;-8.47;98.59;101113.28;1684837;84;21028;-67
2022/01/24 05:47:43;;;;;;;28.15;14.13;;;;;;;-8.53;98.83;101113.42;1734946;82;21017;-68
2022/01/24 05:50:12;;;;;;;33.83;15.28;;;;;;;-8.48;99.17;101111.61;1736878;82;20967;-68
2022/01/24 05:52:39;;;;;;;35.92;14.78;;;;;;;-8.46;99.38;101113.12;1733913;82;21983;-67
2022/01/24 05:55:12;;;;;;;27.55;13.35;;;;;;;-8.48;99.14;101112.95;1730723;82;21023;-68
2022/01/24 05:57:39;;;;;;;26.87;13.22;;;;;;;-8.52;99.14;101112.91;1735512;82;21467;-67
2022/01/24 06:00:12;;;;;;;26.45;13.05;;;;;;;-8.59;99.24;101115.38;1737966;82;21350;-69
2022/01/24 06:02:43;;;;;;;36.75;15.43;;;;;;;-8.64;99.34;101115.00;1737805;82;21467;-68
2022/01/24 06:05:10;;;;;;;32.33;14.20;;;;;;;-8.70;99.39;101115.96;1734161;82;21530;-67
2022/01/24 06:07:37;;;;;;;24.52;12.55;;;;;;;-8.73;99.27;101120.28;1733835;82;21062;-68
2022/01/24 06:10:05;;;;;;;22.62;12.33;;;;;;;-8.75;99.45;101110.75;1738208;82;21569;-68
2022/01/24 06:12:32;;;;;;;24.07;11.88;;;;;;;-8.76;99.38;101116.58;1736234;82;20991;-68
2022/01/24 06:14:59;;;;;;;26.93;11.57;;;;;;;-8.76;99.69;101127.27;1739225;82;20991;-69
2022/01/24 06:17:25;;;;;;;28.70;13.93;;;;;;;-8.73;99.90;101126.96;1721314;82;21618;-67
2022/01/24 06:19:52;;;;;;;37.75;15.80;;;;;;;-8.77;100.00;101122.08;1734801;82;20989;-68
2022/01/24 06:22:21;;;;;;;32.08;13.32;;;;;;;-8.81;100.00;101125.55;1735276;82;21031;-69
2022/01/24 06:24:49;;;;;;;23.80;11.65;;;;;;;-8.83;100.00;101122.19;1737675;82;21003;-68
2022/01/24 06:27:20;;;;;;;25.90;11.45;;;;;;;-8.85;100.00;101130.36;1737315;82;20991;-69
2022/01/24 06:29:50;;;;;;;24.98;12.05;;;;;;;-8.82;100.00;101134.06;1737955;82;21205;-67
2022/01/24 06:32:22;;;;;;;25.62;10.78;;;;;;;-8.82;100.00;101134.06;1737281;82;21023;-68
2022/01/24 06:34:49;;;;;;;22.67;9.88;;;;;;;-8.77;100.00;101139.45;1735416;82;21018;-68
2022/01/24 06:37:16;;;;;;;25.55;11.97;;;;;;;-8.67;100.00;101136.22;1730619;82;21119;-68
2022/01/24 06:39:45;;;;;;;26.82;11.00;;;;;;;-8.65;100.00;101130.23;1699355;83;21099;-67
2022/01/24 06:42:21;;;;;;;24.40;11.15;;;;;;;-8.57;100.00;101139.66;1701684;83;21122;-66
2022/01/24 06:44:45;;;;;;;25.82;11.33;;;;;;;-8.58;100.00;101137.95;1620602;87;21052;-68
2022/01/24 06:47:12;;;;;;;23.85;11.68;;;;;;;-8.55;100.00;101137.61;1631654;87;21081;-68
2022/01/24 06:49:38;;;;;;;25.37;11.22;;;;;;;-8.60;100.00;101135.95;1637470;87;21489;-67
2022/01/24 06:52:06;;;;;;;26.82;12.88;;;;;;;-8.60;100.00;101137.30;1699190;83;21004;-67
2022/01/24 06:54:37;;;;;;;31.80;12.90;;;;;;;-8.59;100.00;101134.95;1699959;83;21671;-69
2022/01/24 06:57:04;;;;;;;26.82;12.58;;;;;;;-8.58;100.00;101128.59;1699703;83;21052;-68
2022/01/24 06:59:34;;;;;;;25.17;12.07;;;;;;;-8.52;100.00;101128.95;1691834;83;21084;-70
2022/01/24 07:02:05;;;;;;;23.83;11.43;;;;;;;-8.44;100.00;101127.67;1695163;83;21013;-68
2022/01/24 07:04:58;;;;;;;27.22;12.80;;;;;;;-8.39;100.00;101130.73;1689143;83;21096;-69
2022/01/24 07:07:26;;;;;;;24.95;11.50;;;;;;;-8.36;100.00;101133.61;1689804;84;21192;-68
2022/01/24 07:09:53;;;;;;;22.37;10.88;;;;;;;-8.22;100.00;101134.89;1697354;83;21029;-70
2022/01/24 07:12:22;;;;;;;25.37;12.58;;;;;;;-8.19;100.00;101129.22;1697309;83;21064;-70
2022/01/24 07:14:55;;;;;;;22.62;12.07;;;;;;;-8.23;100.00;101134.05;1691926;83;21100;-70
2022/01/24 07:19:53;;;;;;;24.15;13.08;;;;;;;-8.11;100.00;101136.45;1670799;83;21382;-68
2022/01/24 07:22:22;;;;;;;23.45;11.57;;;;;;;-8.06;100.00;101136.34;1697699;83;21008;-67
2022/01/24 07:24:48;;;;;;;27.22;13.72;;;;;;;-8.00;100.00;101136.19;1700141;83;21559;-69
2022/01/24 07:27:17;;;;;;;26.00;11.78;;;;;;;-7.88;100.00;101131.94;1697556;83;21040;-69
2022/01/24 07:29:47;;;;;;;23.73;12.05;;;;;;;-7.72;100.00;101120.46;1697300;83;21040;-68
2022/01/24 07:32:17;;;;;;;33.28;13.18;;;;;;;-7.58;100.00;101115.86;1696078;83;21222;-68
2022/01/24 07:34:45;;;;;;;28.10;12.80;;;;;;;-7.55;100.00;101112.50;1699569;83;21548;-68
2022/01/24 07:37:13;;;;;;;27.35;12.60;;;;;;;-7.55;100.00;101118.70;1699965;83;21485;-68
2022/01/24 07:39:40;;;;;;;32.93;15.10;;;;;;;-7.55;100.00;101117.86;1672467;85;21036;-68
2022/01/24 07:42:40;;;;;;;27.48;13.05;;;;;;;-7.51;100.00;101124.09;1686850;84;21086;-68
2022/01/24 07:44:51;;;;;;;32.60;15.30;;;;;;;-7.45;100.00;101114.06;1730318;82;22452;-68
2022/01/24 07:47:21;;;;;;;37.75;16.60;;;;;;;-7.48;100.00;101115.73;1740806;82;21011;-69
2022/01/24 07:49:48;;;;;;;26.20;13.62;;;;;;;-7.45;100.00;101114.55;1670662;85;21525;-67
2022/01/24 07:52:17;;;;;;;27.85;14.00;;;;;;;-7.38;100.00;101108.05;1683339;84;21059;-69
2022/01/24 07:54:46;;;;;;;28.85;14.83;;;;;;;-7.41;100.00;101109.72;1734908;82;21043;-68
2022/01/24 07:57:14;;;;;;;27.32;12.68;;;;;;;-7.43;100.00;101112.56;1737774;82;21353;-68
2022/01/24 07:59:40;;;;;;;29.87;13.53;;;;;;;-7.42;100.00;101103.52;1674715;85;21480;-67
2022/01/24 08:02:09;;;;;;;32.95;14.25;;;;;;;-7.39;100.00;101091.16;1684993;84;21068;-68
2022/01/24 08:04:37;;;;;;;30.62;12.50;;;;;;;-7.34;100.00;101097.36;1677585;84;20996;-69
2022/01/24 08:07:06;;;;;;;23.20;11.90;;;;;;;-7.26;100.00;101093.85;1681568;84;21052;-67
2022/01/24 08:09:32;;;;;;;30.52;14.60;;;;;;;-7.16;100.00;101102.59;1677353;84;21552;-66
2022/01/24 08:12:02;;;;;;;28.32;14.80;;;;;;;-7.14;100.00;101094.39;1679313;84;21012;-67
2022/01/24 08:14:28;;;;;;;31.12;14.75;;;;;;;-7.13;100.00;101093.41;1677482;84;21106;-66
2022/01/24 08:16:55;;;;;;;29.37;14.18;;;;;;;-7.12;100.00;101096.41;1712663;82;21018;-67
2022/01/24 08:19:27;;;;;;;28.02;14.05;;;;;;;-7.09;100.00;101096.08;1735444;82;22074;-68
2022/01/24 08:21:56;;;;;;;31.57;14.83;;;;;;;-7.07;100.00;101093.23;1732377;82;21306;-68
2022/01/24 08:24:24;;;;;;;30.43;14.83;;;;;;;-7.03;100.00;101094.10;1731766;82;21119;-67
2022/01/24 08:26:52;;;;;;;28.90;14.60;;;;;;;-6.99;100.00;101097.27;1713393;82;21018;-67
2022/01/24 08:29:25;;;;;;;33.78;15.35;;;;;;;-6.97;100.00;101092.58;1730311;81;21479;-68
2022/01/24 08:31:57;;;;;;;34.08;13.78;;;;;;;-6.92;100.00;101090.73;1723393;82;21307;-67
2022/01/24 08:34:27;;;;;;;26.00;12.25;;;;;;;-6.86;100.00;101095.46;1682870;85;21110;-68
2022/01/24 08:36:53;;;;;;;28.92;13.68;;;;;;;-6.81;100.00;101092.27;1676668;85;21036;-67
2022/01/24 08:39:20;;;;;;;24.45;13.35;;;;;;;-6.79;100.00;101078.20;1677245;84;21659;-67
2022/01/24 08:47:05;;;;;;;33.88;14.45;;;;;;;-6.58;100.00;101075.53;1671408;85;21262;-68
2022/01/24 08:49:32;;;;;;;37.88;17.80;;;;;;;-6.52;100.00;101072.17;1684393;84;21008;-67
2022/01/24 08:51:59;;;;;;;29.23;13.22;;;;;;;-6.48;100.00;101081.55;1673210;85;21655;-67
2022/01/24 08:54:27;;;;;;;31.12;14.58;;;;;;;-6.40;100.00;101071.33;1690143;84;21098;-67
2022/01/24 08:56:55;;;;;;;28.57;14.68;;;;;;;-6.37;100.00;101078.54;1674148;85;21573;-68
2022/01/24 08:59:22;;;;;;;40.08;16.07;;;;;;;-6.38;100.00;101082.73;1683182;84;21178;-67
2022/01/24 09:01:48;;;;;;;34.98;14.53;;;;;;;-6.39;100.00;101076.52;1621557;87;21056;-69
2022/01/24 09:04:15;;;;;;;33.15;15.72;;;;;;;-6.30;100.00;101078.70;1684200;84;21146;-67
2022/01/24 09:06:43;;;;;;;33.45;15.58;;;;;;;-6.20;100.00;101077.66;1679714;84;21040;-69
2022/01/24 09:09:09;;;;;;;30.60;14.50;;;;;;;-6.10;100.00;101072.95;1677542;84;22259;-68
2022/01/24 09:11:36;;;;;;;32.98;14.60;;;;;;;-6.01;100.00;101078.62;1652154;86;21077;-68
2022/01/24 09:14:06;;;;;;;31.02;14.83;;;;;;;-5.92;100.00;101074.56;1673349;84;21055;-67
2022/01/24 09:16:37;;;;;;;32.38;14.98;;;;;;;-5.86;100.00;101076.55;1681257;84;21037;-67
2022/01/24 09:19:04;;;;;;;32.30;14.05;;;;;;;-5.81;100.00;101080.05;1684726;84;21779;-69
2022/01/24 09:21:31;;;;;;;31.93;15.10;;;;;;;-5.69;100.00;101080.02;1684661;83;21115;-67
2022/01/24 09:23:57;;;;;;;31.80;16.35;;;;;;;-5.60;100.00;101079.49;1678184;84;21838;-68
2022/01/24 09:26:24;;;;;;;27.93;13.80;;;;;;;-5.46;100.00;101064.98;1674810;84;21037;-68
2022/01/24 09:28:51;;;;;;;30.43;14.35;;;;;;;-5.39;100.00;101062.75;1676362;84;21041;-67
2022/01/24 09:31:18;;;;;;;34.83;15.58;;;;;;;-5.33;100.00;101067.09;1681064;84;21115;-65
2022/01/24 09:33:46;;;;;;;30.00;14.78;;;;;;;-5.48;98.51;101072.38;1676230;85;21056;-66
2022/01/24 09:36:14;;;;;;;29.67;14.60;;;;;;;-5.56;97.90;101070.58;1680544;84;21210;-67
2022/01/24 09:38:44;;;;;;;29.92;15.83;;;;;;;-5.60;97.89;101067.90;1673041;85;21057;-68
2022/01/24 09:41:13;;;;;;;29.20;14.05;;;;;;;-5.53;98.05;101068.38;1659905;86;21559;-67
2022/01/24 09:43:43;;;;;;;36.05;15.18;;;;;;;-5.44;97.33;101069.69;1700790;82;22194;-67
2022/01/24 09:46:12;;;;;;;39.25;16.37;;;;;;;-5.37;96.61;101066.11;1704965;83;21494;-68
2022/01/24 09:48:43;;;;;;;28.38;14.40;;;;;;;-5.40;93.89;101066.96;1718417;83;21080;-67
2022/01/24 09:51:11;;;;;;;30.17;14.35;;;;;;;-5.45;94.05;101063.96;1721672;83;21463;-68
2022/01/24 09:53:40;;;;;;;30.30;16.05;;;;;;;-5.34;94.91;101061.41;1721683;83;21036;-67
2022/01/24 09:56:08;;;;;;;27.02;13.75;;;;;;;-5.36;92.25;101052.17;1721625;82;21065;-67
2022/01/24 09:58:36;;;;;;;31.12;14.15;;;;;;;-5.38;92.86;101059.56;1721586;83;21041;-68
2022/01/24 10:01:07;;;;;;;34.38;16.70;;;;;;;-5.45;89.72;101051.88;1721664;83;21506;-67
2022/01/24 10:03:35;;;;;;;28.62;14.50;;;;;;;-5.60;89.31;101046.41;1721407;82;21549;-67
2022/01/24 10:06:03;;;;;;;30.92;14.63;;;;;;;-5.66;89.66;101038.53;1721362;82;21021;-68
2022/01/24 10:08:32;;;;;;;31.40;14.28;;;;;;;-5.67;88.67;101049.80;1721471;82;21085;-67
2022/01/24 10:11:02;;;;;;;29.07;14.40;;;;;;;-5.67;88.67;101055.17;1718812;83;21009;-67
2022/01/24 10:19:15;;;;;;;28.67;13.83;;;;;;;-5.60;89.26;101028.95;1721273;82;21093;-68
2022/01/24 10:21:52;;;;;;;29.05;15.05;;;;;;;-5.55;88.55;101031.45;1720164;83;21566;-68
2022/01/24 10:24:47;;;;;;;29.30;14.40;;;;;;;-5.54;87.47;101034.95;1715922;83;21045;-67
2022/01/24 10:27:20;;;;;;;35.52;15.75;;;;;;;-5.64;86.18;101027.11;1717595;82;21520;-68
2022/01/24 10:30:12;;;;;;;30.75;15.55;;;;;;;-5.68;86.52;101028.48;1679512;84;21049;-68
2022/01/24 10:32:44;;;;;;;40.23;16.20;;;;;;;-5.58;86.31;101029.11;1677831;84;21049;-68
2022/01/24 10:35:39;;;;;;;36.05;16.95;;;;;;;-5.51;86.00;101022.53;1721382;83;21080;-66
2022/01/24 10:41:21;;;;;;;28.83;13.43;;;;;;;-5.19;85.54;101026.03;1696068;83;21238;-68
2022/01/24 10:43:48;;;;;;;41.00;18.62;;;;;;;-5.15;85.00;101014.39;1720635;82;21092;-68
2022/01/24 10:46:25;;;;;;;38.15;18.73;;;;;;;-5.17;82.99;101005.69;1720882;82;21076;-67
2022/01/24 10:49:12;;;;;;;28.12;13.48;;;;;;;-5.31;82.45;101003.25;1671781;84;21021;-68
2022/01/24 10:51:40;;;;;;;32.33;16.30;;;;;;;-5.37;82.78;101007.48;1720652;82;21035;-68
2022/01/24 10:54:07;;;;;;;32.53;16.52;;;;;;;-5.38;82.93;100998.60;1686251;84;21056;-68
2022/01/24 10:56:40;;;;;;;30.08;15.43;;;;;;;-5.35;83.32;100996.55;1674609;84;21122;-68
2022/01/24 10:59:15;;;;;;;31.50;15.70;;;;;;;-5.27;83.61;100995.18;1678754;84;21137;-67
2022/01/24 11:01:45;;;;;;;34.67;16.32;;;;;;;-5.22;83.28;100998.14;1662188;86;21114;-68
2022/01/24 11:04:17;;;;;;;32.08;16.73;;;;;;;-5.15;83.01;100992.38;1703456;83;21048;-68
2022/01/24 11:06:48;;;;;;;35.83;16.53;;;;;;;-5.09;82.36;100984.62;1721393;83;21169;-68
2022/01/24 11:09:23;;;;;;;35.25;15.70;;;;;;;-5.05;82.36;100984.60;1721539;83;21088;-69
2022/01/24 11:11:56;;;;;;;33.53;14.63;;;;;;;-5.06;81.56;100990.98;1722530;83;21073;-67
2022/01/24 11:14:25;;;;;;;34.53;17.50;;;;;;;-5.16;81.50;100999.29;1721972;83;21009;-69
2022/01/24 11:16:54;;;;;;;37.88;17.30;;;;;;;-5.28;86.99;100984.08;1721654;82;21596;-67
2022/01/24 11:19:39;;;;;;;37.80;16.17;;;;;;;-5.29;87.87;100976.52;1723027;83;21597;-68
2022/01/24 11:22:01;;;;;;;36.77;16.62;;;;;;;-5.28;88.51;100971.98;1721458;82;21048;-66
2022/01/24 11:24:38;;;;;;;39.30;16.73;;;;;;;-5.16;87.32;100967.88;1672373;84;21076;-67
2022/01/24 11:27:00;;;;;;;32.45;16.37;;;;;;;-5.11;85.93;100968.67;1699338;83;21030;-67
2022/01/24 11:29:25;;;;;;;30.23;16.15;;;;;;;-5.07;83.99;100967.30;1722633;82;20989;-67
2022/01/24 11:32:13;;;;;;;32.45;16.12;;;;;;;-5.05;83.20;100967.12;1711048;81;21545;-69
2022/01/24 11:34:46;;;;;;;35.98;17.23;;;;;;;-4.94;83.76;100972.56;1688113;83;21127;-67
2022/01/24 11:37:12;;;;;;;35.05;16.95;;;;;;;-4.76;82.55;100968.22;1720422;82;21001;-68
2022/01/24 11:39:40;;;;;;;39.03;17.12;;;;;;;-4.69;82.28;100975.05;1671294;83;21122;-67
2022/01/24 11:42:08;;;;;;;29.48;14.40;;;;;;;-4.56;82.08;100973.06;1707869;83;21048;-67
2022/01/24 11:44:50;;;;;;;36.03;15.48;;;;;;;-4.43;80.94;100964.34;1706676;83;21062;-66
2022/01/24 11:47:23;;;;;;;43.83;17.52;;;;;;;-4.55;78.41;100972.03;1709456;83;21184;-66
2022/01/24 11:49:53;;;;;;;29.90;12.78;;;;;;;-4.63;97.13;100985.08;1707467;83;21051;-67
2022/01/24 11:52:18;;;;;;;27.62;14.07;;;;;;;-4.82;100.00;100960.36;1707273;83;21043;-67
2022/01/24 11:57:40;;;;;;;22.35;11.93;;;;;;;-4.57;100.00;100947.19;1712324;83;21795;-66
2022/01/24 12:00:13;;;;;;;41.28;16.90;;;;;;;-4.42;100.00;100949.89;1709326;83;21020;-67
2022/01/24 12:02:52;;;;;;;25.90;13.13;;;;;;;-4.36;100.00;100952.33;1709446;83;21537;-65
2022/01/24 12:05:31;;;;;;;22.13;11.45;;;;;;;-4.38;100.00;100949.01;1708071;82;21114;-68
2022/01/24 12:08:04;;;;;;;23.38;11.88;;;;;;;-4.39;98.65;100952.20;1708341;83;21111;-67
2022/01/24 12:10:37;;;;;;;34.23;15.57;;;;;;;-4.33;99.24;100953.33;1711023;83;21171;-67
2022/01/24 12:13:35;;;;;;;33.92;15.85;;;;;;;-4.34;97.60;100948.45;1709322;83;21056;-69
2022/01/24 12:16:09;;;;;;;32.42;13.22;;;;;;;-4.17;97.62;100954.98;1708379;83;21542;-66
2022/01/24 12:18:43;;;;;;;31.52;13.50;;;;;;;-4.14;95.39;100945.17;1708253;83;21042;-66
2022/01/24 12:21:15;;;;;;;25.97;12.07;;;;;;;-4.24;92.40;100949.50;1707370;83;21024;-66
2022/01/24 12:23:47;;;;;;;24.20;11.10;;;;;;;-4.33;91.29;100956.02;1651104;83;21098;-66
2022/01/24 12:26:20;;;;;;;24.80;11.30;;;;;;;-4.41;92.59;100949.70;1711073;82;21055;-65
2022/01/24 12:28:50;;;;;;;24.02;11.68;;;;;;;-4.52;93.12;100948.81;1706164;83;21497;-67
2022/01/24 12:31:35;;;;;;;29.82;12.68;;;;;;;-4.55;93.60;100940.59;1708932;83;21313;-67
2022/01/24 12:34:25;;;;;;;24.50;11.15;;;;;;;-4.49;95.35;100943.06;1704239;83;21129;-66
2022/01/24 12:37:00;;;;;;;18.35;8.93;;;;;;;-4.43;93.30;100942.31;1704524;83;22258;-66
2022/01/24 12:39:45;;;;;;;18.73;9.68;;;;;;;-4.39;94.93;100949.52;1664102;84;21037;-66
2022/01/24 12:42:18;;;;;;;26.77;11.77;;;;;;;-4.37;91.10;100952.02;1727843;82;21038;-67
2022/01/24 12:47:24;;;;;;;23.85;11.78;;;;;;;-4.60;88.38;100956.45;1732452;82;21506;-67
2022/01/24 12:49:51;;;;;;;23.47;10.18;;;;;;;-4.57;91.21;100965.49;1728299;81;21068;-66
2022/01/24 12:52:21;;;;;;;20.62;10.25;;;;;;;-4.44;89.35;100959.99;1728704;82;20998;-66
2022/01/24 12:54:57;;;;;;;19.00;9.93;;;;;;;-4.36;90.15;100948.29;1731480;82;20979;-66
2022/01/24 12:57:29;;;;;;;21.90;10.72;;;;;;;-4.16;87.42;100942.67;1729967;82;20998;-67
2022/01/24 13:00:07;;;;;;;29.27;10.72;;;;;;;-4.15;92.52;100955.64;1728920;82;21008;-64
2022/01/24 13:02:37;;;;;;;21.70;10.43;;;;;;;-3.98;93.68;100956.27;1734513;81;21792;-65
2022/01/24 13:05:20;;;;;;;28.15;14.25;;;;;;;-3.92;89.35;100954.16;1732718;82;21471;-67
2022/01/24 13:07:54;;;;;;;20.43;10.28;;;;;;;-3.82;88.61;100955.20;1724572;82;20979;-66
2022/01/24 13:10:28;;;;;;;25.57;12.20;;;;;;;-3.65;87.10;100954.97;1722791;82;21021;-66
2022/01/24 13:13:05;;;;;;;25.05;11.60;;;;;;;-3.54;86.04;100949.61;1731902;82;21054;-66